createdAt,value
2023-01-07T00:02:30.504Z,5.50
2023-01-07T00:05:25.376Z,5.40
2023-01-07T00:08:13.414Z,5.50
2023-01-07T00:10:54.895Z,5.40
2023-01-07T00:13:36.515Z,6.20
2023-01-07T00:16:30.604Z,5.70
2023-01-07T00:19:07.232Z,5.20
2023-01-07T00:21:56.306Z,5.10
2023-01-07T00:24:31.031Z,5.90
2023-01-07T00:27:19.480Z,5.80
2023-01-07T00:30:01.475Z,5.30
2023-01-07T00:33:12.455Z,5.10
2023-01-07T00:35:54.448Z,5.70
2023-01-07T00:38:36.551Z,5.60
2023-01-07T00:41:19.467Z,5.20
2023-01-07T00:44:08.425Z,5.30
2023-01-07T00:46:43.908Z,5.40
2023-01-07T00:49:33.651Z,5.10
2023-01-07T00:52:08.787Z,4.50
2023-01-07T00:54:56.427Z,6.00
2023-01-07T00:57:31.675Z,5.90
2023-01-07T01:00:21.271Z,5.10
2023-01-07T01:03:02.409Z,5.30
2023-01-07T01:06:00.555Z,5.40
2023-01-07T01:08:42.394Z,5.50
2023-01-07T01:11:24.579Z,6.30
2023-01-07T01:14:06.374Z,8.90
2023-01-07T01:16:49.805Z,6.10
2023-01-07T01:19:31.393Z,6.30
2023-01-07T01:22:13.595Z,4.70
2023-01-07T01:24:57.312Z,5.80
2023-01-07T01:27:38.610Z,5.20
2023-01-07T01:30:20.405Z,5.00
2023-01-07T01:33:08.263Z,5.10
2023-01-07T01:35:50.645Z,5.80
2023-01-07T01:38:31.450Z,5.70
2023-01-07T01:41:16.146Z,6.70
2023-01-07T01:43:59.408Z,5.30
2023-01-07T01:46:43.347Z,4.90
2023-01-07T01:49:30.376Z,5.10
2023-01-07T01:52:19.694Z,4.90
2023-01-07T01:55:11.484Z,5.40
2023-01-07T01:57:47.491Z,5.20
2023-01-07T02:00:35.318Z,5.90
2023-01-07T02:03:13.453Z,5.50
2023-01-07T02:06:01.493Z,5.60
2023-01-07T02:08:36.837Z,4.60
2023-01-07T02:11:46.379Z,3.70
2023-01-07T02:14:38.258Z,5.00
2023-01-07T02:17:38.224Z,3.90
2023-01-07T02:20:23.402Z,5.40
2023-01-07T02:23:34.395Z,4.90
2023-01-07T02:26:56.408Z,5.70
2023-01-07T02:29:51.835Z,5.90
2023-01-07T02:32:52.316Z,5.10
2023-01-07T02:36:05.687Z,5.80
2023-01-07T02:39:12.358Z,5.70
2023-01-07T02:42:03.266Z,4.90
2023-01-07T02:45:13.423Z,4.90
2023-01-07T02:47:58.493Z,4.70
2023-01-07T02:50:46.433Z,5.00
2023-01-07T02:53:22.486Z,5.10
2023-01-07T02:56:29.367Z,5.20
2023-01-07T02:59:04.812Z,4.50
2023-01-07T03:02:07.441Z,4.60
2023-01-07T03:05:20.318Z,5.20
2023-01-07T03:08:14.392Z,4.50
2023-01-07T03:11:10.009Z,3.60
2023-01-07T03:14:06.434Z,4.80
2023-01-07T03:16:54.897Z,4.20
2023-01-07T03:19:49.231Z,4.20
2023-01-07T03:22:32.408Z,4.10
2023-01-07T03:25:21.236Z,4.80
2023-01-07T03:27:57.557Z,4.00
2023-01-07T03:30:46.385Z,4.20
2023-01-07T03:33:26.742Z,4.20
2023-01-07T03:36:15.246Z,4.50
2023-01-07T03:38:58.258Z,4.50
2023-01-07T03:41:59.564Z,4.30
2023-01-07T03:44:42.380Z,3.90
2023-01-07T03:47:24.487Z,4.50
2023-01-07T03:50:06.379Z,3.90
2023-01-07T03:52:55.427Z,4.00
2023-01-07T03:55:31.189Z,3.20
2023-01-07T03:58:20.399Z,3.60
2023-01-07T04:01:15.429Z,3.10
2023-01-07T04:04:10.410Z,3.20
2023-01-07T04:06:58.407Z,3.40
2023-01-07T04:09:40.401Z,3.50
2023-01-07T04:12:28.433Z,3.20
2023-01-07T04:15:03.581Z,3.00
2023-01-07T04:17:51.401Z,3.20
2023-01-07T04:20:26.394Z,3.50
2023-01-07T04:23:14.375Z,4.80
2023-01-07T04:25:49.512Z,5.20
2023-01-07T04:28:37.433Z,3.30
2023-01-07T04:31:20.210Z,3.90
2023-01-07T04:34:08.405Z,3.60
2023-01-07T04:36:50.404Z,3.80
2023-01-07T04:39:38.212Z,76.80
2023-01-07T04:42:19.362Z,155.60
2023-01-07T04:45:07.209Z,117.20
2023-01-07T04:47:48.230Z,164.00
2023-01-07T04:50:43.425Z,49.00
2023-01-07T04:53:38.245Z,24.00
2023-01-07T04:56:26.367Z,4.30
2023-01-07T04:59:08.214Z,19.40
2023-01-07T05:02:03.328Z,23.20
2023-01-07T05:04:51.299Z,27.30
2023-01-07T05:07:26.543Z,4.10
2023-01-07T05:10:15.217Z,3.80
2023-01-07T05:12:50.544Z,4.20
2023-01-07T05:15:39.396Z,8.40
2023-01-07T05:18:14.532Z,4.10
2023-01-07T05:21:02.263Z,3.90
2023-01-07T05:23:44.364Z,3.40
2023-01-07T05:26:32.231Z,3.90
2023-01-07T05:29:07.330Z,5.10
2023-01-07T05:31:55.373Z,9.60
2023-01-07T05:34:31.225Z,10.10
2023-01-07T05:37:19.368Z,10.10
2023-01-07T05:39:54.503Z,9.40
2023-01-07T05:42:42.342Z,8.80
2023-01-07T05:45:25.224Z,10.00
2023-01-07T05:48:20.202Z,7.10
2023-01-07T05:51:08.192Z,7.70
2023-01-07T05:53:50.402Z,4.30
2023-01-07T05:56:45.402Z,4.70
2023-01-07T05:59:41.224Z,4.80
2023-01-07T06:02:29.370Z,6.30
2023-01-07T06:05:18.417Z,18.70
2023-01-07T06:07:53.862Z,11.10
2023-01-07T06:10:42.325Z,18.60
2023-01-07T06:13:17.966Z,9.50
2023-01-07T06:16:06.260Z,7.00
2023-01-07T06:19:01.421Z,7.70
2023-01-07T06:21:49.354Z,17.80
2023-01-07T06:24:31.215Z,11.60
2023-01-07T06:27:26.354Z,19.90
2023-01-07T06:30:16.200Z,21.20
2023-01-07T06:32:51.354Z,14.90
2023-01-07T06:35:39.309Z,10.40
2023-01-07T06:38:21.409Z,9.60
2023-01-07T06:41:16.397Z,8.40
2023-01-07T06:44:04.246Z,6.30
2023-01-07T06:46:46.342Z,9.10
2023-01-07T06:49:41.350Z,7.40
2023-01-07T06:52:29.222Z,6.90
2023-01-07T06:55:04.521Z,7.30
2023-01-07T06:57:52.215Z,8.00
2023-01-07T07:00:27.493Z,6.80
2023-01-07T07:03:15.275Z,5.70
2023-01-07T07:05:50.461Z,5.30
2023-01-07T07:08:38.388Z,5.60
2023-01-07T07:11:13.540Z,5.30
2023-01-07T07:14:08.332Z,4.80
2023-01-07T07:17:03.333Z,6.20
2023-01-07T07:19:51.372Z,6.00
2023-01-07T07:22:33.187Z,6.40
2023-01-07T07:25:29.183Z,6.00
2023-01-07T07:28:17.206Z,5.90
2023-01-07T07:30:52.558Z,5.40
2023-01-07T07:33:40.308Z,5.90
2023-01-07T07:36:23.205Z,5.70
2023-01-07T07:39:19.178Z,8.50
2023-01-07T07:42:11.180Z,6.50
2023-01-07T07:44:53.189Z,6.00
2023-01-07T07:47:34.764Z,6.70
2023-01-07T07:50:23.315Z,7.20
2023-01-07T07:52:57.737Z,5.80
2023-01-07T07:55:46.285Z,5.50
2023-01-07T07:58:21.864Z,6.70
2023-01-07T08:01:10.372Z,6.30
2023-01-07T08:03:45.893Z,5.80
2023-01-07T08:06:34.285Z,5.90
2023-01-07T08:09:09.819Z,5.70
2023-01-07T08:11:58.373Z,6.50
2023-01-07T08:14:48.355Z,6.70
2023-01-07T08:17:42.591Z,6.20
2023-01-07T08:20:21.296Z,6.40
2023-01-07T08:23:10.168Z,6.40
2023-01-07T08:25:45.304Z,6.20
2023-01-07T08:28:33.179Z,6.90
2023-01-07T08:31:22.221Z,7.80
2023-01-07T08:34:03.169Z,8.30
2023-01-07T08:36:45.427Z,7.80
2023-01-07T08:39:27.157Z,8.30
2023-01-07T08:42:08.518Z,8.30
2023-01-07T08:44:51.168Z,8.90
2023-01-07T08:47:32.344Z,8.60
2023-01-07T08:50:13.173Z,8.80
2023-01-07T08:52:54.441Z,9.00
2023-01-07T08:55:36.335Z,9.70
2023-01-07T08:58:24.368Z,9.80
2023-01-07T09:01:05.023Z,9.90
2023-01-07T09:03:53.285Z,10.40
2023-01-07T09:06:28.727Z,8.40
2023-01-07T09:09:16.357Z,11.20
2023-01-07T09:11:51.703Z,11.60
2023-01-07T09:14:39.340Z,13.10
2023-01-07T09:17:34.331Z,13.10
2023-01-07T09:20:22.379Z,11.20
2023-01-07T09:23:04.365Z,13.60
2023-01-07T09:25:52.159Z,11.00
2023-01-07T09:28:27.533Z,13.80
2023-01-07T09:31:16.332Z,12.40
2023-01-07T09:33:57.860Z,13.30
2023-01-07T09:36:40.159Z,13.30
2023-01-07T09:39:28.236Z,12.30
2023-01-07T09:42:10.477Z,12.40
2023-01-07T09:45:17.208Z,12.70
2023-01-07T09:48:14.168Z,14.70
2023-01-07T09:51:06.189Z,15.30
2023-01-07T09:53:50.339Z,14.60
2023-01-07T09:56:42.164Z,14.80
2023-01-07T09:59:18.622Z,16.10
2023-01-07T10:02:36.175Z,14.00
2023-01-07T10:05:32.392Z,17.10
2023-01-07T10:08:39.180Z,17.70
2023-01-07T10:11:24.399Z,17.60
2023-01-07T10:14:51.169Z,15.20
2023-01-07T10:17:56.331Z,13.90
2023-01-07T10:20:47.250Z,12.70
2023-01-07T10:23:32.184Z,14.30
2023-01-07T10:27:01.156Z,13.80
2023-01-07T10:29:38.387Z,14.30
2023-01-07T10:32:29.190Z,15.00
2023-01-07T10:35:06.648Z,13.70
2023-01-07T10:37:55.145Z,14.50
2023-01-07T10:40:49.746Z,14.70
2023-01-07T10:43:50.664Z,13.90
2023-01-07T10:46:43.291Z,13.20
2023-01-07T10:49:36.162Z,14.00
2023-01-07T10:52:20.413Z,13.40
2023-01-07T10:55:27.191Z,13.80
2023-01-07T10:58:02.327Z,13.40
2023-01-07T11:00:53.306Z,13.10
2023-01-07T11:03:37.151Z,13.70
2023-01-07T11:06:36.174Z,14.20
2023-01-07T11:09:30.157Z,14.50
2023-01-07T11:12:09.288Z,14.70
2023-01-07T11:14:57.148Z,12.90
2023-01-07T11:17:58.234Z,14.30
2023-01-07T11:20:45.838Z,14.90
2023-01-07T11:23:54.110Z,13.30
2023-01-07T11:26:32.894Z,13.20
2023-01-07T11:29:38.122Z,15.00
2023-01-07T11:32:49.172Z,14.10
2023-01-07T11:35:31.348Z,14.40
2023-01-07T11:38:33.210Z,14.90
2023-01-07T11:41:36.555Z,13.70
2023-01-07T11:44:16.216Z,15.00
2023-01-07T11:47:05.182Z,12.80
2023-01-07T11:49:44.580Z,12.50
2023-01-07T11:52:34.151Z,12.80
2023-01-07T11:55:18.781Z,12.10
2023-01-07T11:58:28.226Z,10.20
2023-01-07T12:01:16.297Z,10.50
2023-01-07T12:04:03.294Z,10.20
2023-01-07T12:06:46.202Z,10.90
2023-01-07T12:09:50.142Z,11.90
2023-01-07T12:12:35.095Z,12.20
2023-01-07T12:15:35.293Z,12.20
2023-01-07T12:18:44.133Z,11.60
2023-01-07T12:21:56.176Z,11.60
2023-01-07T12:24:55.315Z,10.10
2023-01-07T12:27:52.669Z,9.90
2023-01-07T12:30:31.286Z,10.00
2023-01-07T12:33:25.145Z,11.10
2023-01-07T12:36:12.304Z,10.70
2023-01-07T12:38:57.170Z,10.90
2023-01-07T12:41:48.297Z,10.90
2023-01-07T12:44:30.360Z,10.90
2023-01-07T12:47:31.057Z,10.80
2023-01-07T12:50:37.229Z,10.50
2023-01-07T12:53:41.277Z,11.70
2023-01-07T12:56:30.235Z,11.80
2023-01-07T12:59:46.449Z,13.00
2023-01-07T13:02:42.679Z,11.50
2023-01-07T13:05:33.271Z,11.10
2023-01-07T13:08:34.155Z,11.10
2023-01-07T13:12:03.310Z,12.00
2023-01-07T13:14:58.157Z,11.50
2023-01-07T13:17:35.332Z,10.20
2023-01-07T13:20:36.315Z,10.50
2023-01-07T13:23:20.143Z,12.50
2023-01-07T13:26:46.209Z,12.40
2023-01-07T13:29:52.268Z,16.70
2023-01-07T13:32:53.132Z,15.40
2023-01-07T13:35:56.148Z,14.70
2023-01-07T13:39:19.262Z,12.80
2023-01-07T13:42:30.139Z,14.10
2023-01-07T13:45:07.257Z,24.20
2023-01-07T13:48:00.146Z,24.80
2023-01-07T13:50:53.140Z,20.50
2023-01-07T13:53:46.167Z,25.10
2023-01-07T13:56:27.591Z,18.20
2023-01-07T13:59:09.323Z,16.70
2023-01-07T14:02:29.694Z,17.70
2023-01-07T14:05:22.121Z,14.70
2023-01-07T14:08:17.157Z,15.80
2023-01-07T14:11:05.125Z,14.50
2023-01-07T14:13:48.292Z,10.10
2023-01-07T14:16:41.122Z,12.00
2023-01-07T14:19:40.155Z,11.70
2023-01-07T14:22:53.152Z,14.70
2023-01-07T14:25:55.490Z,12.00
2023-01-07T14:29:02.183Z,12.80
2023-01-07T14:31:43.293Z,18.10
2023-01-07T14:34:31.131Z,18.80
2023-01-07T14:37:21.248Z,20.20
2023-01-07T14:40:02.361Z,20.30
2023-01-07T14:42:58.278Z,19.70
2023-01-07T14:45:39.661Z,18.00
2023-01-07T14:48:45.365Z,13.90
2023-01-07T14:51:50.138Z,13.40
2023-01-07T14:54:56.330Z,13.60
2023-01-07T14:58:19.456Z,14.20
2023-01-07T15:01:13.265Z,14.90
2023-01-07T15:04:26.453Z,15.90
2023-01-07T15:07:30.333Z,16.00
2023-01-07T15:10:54.161Z,17.00
2023-01-07T15:14:07.137Z,16.90
2023-01-07T15:16:42.342Z,16.00
2023-01-07T15:19:30.132Z,17.20
2023-01-07T15:22:11.259Z,14.80
2023-01-07T15:24:59.373Z,15.80
2023-01-07T15:27:49.771Z,16.00
2023-01-07T15:30:56.200Z,16.90
2023-01-07T15:34:09.160Z,19.10
2023-01-07T15:37:05.124Z,18.70
2023-01-07T15:39:59.123Z,21.00
2023-01-07T15:42:34.307Z,19.90
2023-01-07T15:45:25.141Z,22.20
2023-01-07T15:48:12.270Z,19.50
2023-01-07T15:51:03.320Z,20.60
2023-01-07T15:53:46.124Z,24.80
2023-01-07T15:56:41.103Z,21.40
2023-01-07T15:59:34.232Z,21.50
2023-01-07T16:02:43.517Z,19.90
2023-01-07T16:05:38.957Z,22.10
2023-01-07T16:08:41.252Z,20.30
2023-01-07T16:11:41.095Z,19.30
2023-01-07T16:14:33.107Z,19.20
2023-01-07T16:17:33.320Z,19.50
2023-01-07T16:20:19.270Z,21.50
2023-01-07T16:23:15.319Z,17.30
2023-01-07T16:26:00.188Z,16.10
2023-01-07T16:28:57.246Z,16.20
2023-01-07T16:31:31.607Z,23.60
2023-01-07T16:34:37.212Z,25.10
2023-01-07T16:37:14.970Z,25.80
2023-01-07T16:40:08.110Z,31.10
2023-01-07T16:42:54.122Z,22.50
2023-01-07T16:48:21.113Z,19.60
2023-01-07T16:51:04.648Z,15.10
2023-01-07T16:53:48.592Z,15.10
2023-01-07T16:56:29.244Z,18.10
2023-01-07T16:59:21.113Z,18.70
2023-01-07T17:02:04.332Z,21.20
2023-01-07T17:05:00.314Z,19.40
2023-01-07T17:07:55.389Z,17.00
2023-01-07T17:10:52.112Z,17.70
2023-01-07T17:13:46.068Z,14.80
2023-01-07T17:16:34.285Z,14.40
2023-01-07T17:19:33.299Z,13.40
2023-01-07T17:22:41.352Z,13.50
2023-01-07T17:25:37.617Z,15.70
2023-01-07T17:28:26.212Z,12.90
2023-01-07T17:31:01.443Z,14.20
2023-01-07T17:33:49.098Z,18.00
2023-01-07T17:36:26.303Z,15.40
2023-01-07T17:39:16.986Z,17.00
2023-01-07T17:42:13.930Z,13.10
2023-01-07T17:45:04.824Z,12.40
2023-01-07T17:47:41.284Z,11.30
2023-01-07T17:50:29.202Z,11.30
2023-01-07T17:53:04.295Z,10.80
2023-01-07T17:55:57.100Z,10.60
2023-01-07T17:58:37.431Z,11.40
2023-01-07T18:01:29.267Z,11.30
2023-01-07T18:04:17.099Z,12.00
2023-01-07T18:06:55.100Z,11.40
2023-01-07T18:09:43.259Z,11.50
2023-01-07T18:12:30.953Z,10.70
2023-01-07T18:15:29.386Z,11.40
2023-01-07T18:18:07.831Z,9.80
2023-01-07T18:20:58.943Z,11.20
2023-01-07T18:23:43.419Z,10.70
2023-01-07T18:26:25.215Z,11.50
2023-01-07T18:29:06.099Z,12.10
2023-01-07T18:31:56.125Z,11.90
2023-01-07T18:34:42.281Z,12.30
2023-01-07T18:37:41.332Z,13.10
2023-01-07T18:40:23.110Z,10.80
2023-01-07T18:43:07.459Z,11.70
2023-01-07T18:45:52.739Z,12.60
2023-01-07T18:48:35.958Z,13.80
2023-01-07T18:51:18.307Z,11.50
2023-01-07T18:54:06.808Z,13.30
2023-01-07T18:56:42.284Z,20.40
2023-01-07T18:59:30.106Z,28.50
2023-01-07T19:02:14.747Z,22.60
2023-01-07T19:05:04.308Z,20.20
2023-01-07T19:07:42.562Z,17.60
2023-01-07T19:10:37.100Z,14.40
2023-01-07T19:13:18.175Z,10.80
2023-01-07T19:16:06.201Z,13.10
2023-01-07T19:19:02.094Z,11.10
2023-01-07T19:21:50.178Z,11.10
2023-01-07T19:24:32.173Z,10.10
2023-01-07T19:27:28.090Z,10.70
2023-01-07T19:30:17.071Z,11.10
2023-01-07T19:32:53.315Z,12.80
2023-01-07T19:35:43.080Z,14.40
2023-01-07T19:38:18.212Z,18.20
2023-01-07T19:41:14.234Z,17.70
2023-01-07T19:43:52.365Z,15.70
2023-01-07T19:46:41.079Z,12.70
2023-01-07T19:49:17.222Z,9.20
2023-01-07T19:52:05.084Z,8.80
2023-01-07T19:54:40.537Z,8.10
2023-01-07T19:57:28.085Z,8.50
2023-01-07T20:00:03.391Z,11.10
2023-01-07T20:02:52.135Z,32.50
2023-01-07T20:05:42.815Z,31.40
2023-01-07T20:08:41.605Z,26.80
2023-01-07T20:11:29.206Z,18.90
2023-01-07T20:14:05.289Z,21.60
2023-01-07T20:16:53.691Z,13.80
2023-01-07T20:19:31.225Z,10.70
2023-01-07T20:22:20.198Z,13.80
2023-01-07T20:25:06.729Z,14.80
2023-01-07T20:27:58.538Z,11.80
2023-01-07T20:30:34.185Z,20.70
2023-01-07T20:33:22.264Z,22.60
2023-01-07T20:36:06.214Z,11.50
2023-01-07T20:38:54.172Z,12.80
2023-01-07T20:41:40.572Z,12.90
2023-01-07T20:44:40.487Z,14.20
2023-01-07T20:47:29.875Z,15.40
2023-01-07T20:50:04.525Z,12.80
2023-01-07T20:52:55.359Z,18.40
2023-01-07T20:55:37.687Z,16.80
2023-01-07T20:58:26.652Z,21.50
2023-01-07T21:01:17.858Z,14.20
2023-01-07T21:04:08.880Z,17.40
2023-01-07T21:06:46.187Z,14.00
2023-01-07T21:09:43.839Z,16.90
2023-01-07T21:12:40.159Z,24.90
2023-01-07T21:15:30.223Z,22.90
2023-01-07T21:18:12.468Z,23.50
2023-01-07T21:21:02.078Z,28.20
2023-01-07T21:23:37.254Z,28.10
2023-01-07T21:26:26.216Z,22.10
2023-01-07T21:29:07.225Z,20.00
2023-01-07T21:31:57.055Z,17.60
2023-01-07T21:34:35.793Z,12.30
2023-01-07T21:37:24.054Z,8.80
2023-01-07T21:40:06.069Z,8.80
2023-01-07T21:43:01.090Z,9.90
2023-01-07T21:45:49.111Z,12.70
2023-01-07T21:48:24.177Z,16.20
2023-01-07T21:51:14.247Z,18.30
2023-01-07T21:54:05.057Z,15.30
2023-01-07T21:56:46.056Z,15.10
2023-01-07T21:59:28.571Z,9.50
2023-01-07T22:02:10.246Z,10.10
2023-01-07T22:04:52.184Z,14.10
2023-01-07T22:07:33.776Z,12.80
2023-01-07T22:10:29.050Z,12.00
2023-01-07T22:13:18.041Z,8.00
2023-01-07T22:16:00.234Z,7.60
2023-01-07T22:18:55.649Z,12.00
2023-01-07T22:21:44.090Z,11.90
2023-01-07T22:24:20.058Z,11.00
2023-01-07T22:27:08.036Z,18.00
2023-01-07T22:29:44.219Z,10.10
2023-01-07T22:32:32.044Z,10.80
2023-01-07T22:35:13.053Z,9.90
2023-01-07T22:38:09.044Z,7.60
2023-01-07T22:40:57.118Z,7.50
2023-01-07T22:43:32.280Z,7.70
2023-01-07T22:46:26.044Z,7.50
2023-01-07T22:49:05.242Z,7.50
2023-01-07T22:51:55.063Z,14.50
2023-01-07T22:54:31.232Z,6.10
2023-01-07T22:57:19.044Z,6.90
2023-01-07T22:59:54.272Z,7.60
2023-01-07T23:02:42.068Z,14.00
2023-01-07T23:05:17.248Z,8.20
2023-01-07T23:08:12.159Z,8.70
2023-01-07T23:11:00.040Z,9.50
2023-01-07T23:13:34.192Z,14.70
2023-01-07T23:16:22.111Z,12.10
2023-01-07T23:19:04.132Z,12.10
2023-01-07T23:21:54.044Z,10.40
2023-01-07T23:24:37.135Z,12.50
2023-01-07T23:27:25.070Z,14.00
2023-01-07T23:30:00.314Z,12.30
2023-01-07T23:32:48.049Z,11.30
2023-01-07T23:35:30.163Z,10.40
2023-01-07T23:38:12.234Z,9.70
2023-01-07T23:40:53.316Z,12.20
2023-01-07T23:43:35.214Z,12.20
2023-01-07T23:46:24.169Z,11.00
2023-01-07T23:48:59.673Z,13.90
2023-01-07T23:51:49.187Z,13.50
2023-01-07T23:54:44.032Z,12.50
2023-01-07T23:57:32.127Z,13.00
